Time;durP1;ratioP1;P1;durP2;ratioP2;P2;SDS_P1;SDS_P2;PMS_P1;PMS_P2;Temp;Humidity;BMP_temperature;BMP_pressure;BME280_temperature;BME280_humidity;BME280_pressure;Samples;Min_cycle;Max_cycle;Signal;HPM_P1;HPM_P2
2023/07/16 00:01:54;;;;;;;1999.90;999.90;;;18.90;99.90;;;;;;4955288;28;20034;-70
2023/07/16 00:04:20;;;;;;;1999.90;999.90;;;18.80;99.90;;;;;;4954996;28;20081;-70
2023/07/16 00:06:46;;;;;;;1999.90;999.90;;;18.70;99.90;;;;;;4955083;28;20027;-70
2023/07/16 00:09:12;;;;;;;1999.90;999.90;;;18.70;99.90;;;;;;4954655;28;20038;-69
2023/07/16 00:11:37;;;;;;;1999.90;999.90;;;18.70;99.90;;;;;;4954547;29;20023;-69
2023/07/16 00:14:03;;;;;;;1999.90;999.90;;;18.60;99.90;;;;;;4954705;29;20031;-70
2023/07/16 00:16:28;;;;;;;1999.90;999.90;;;18.60;99.90;;;;;;4954802;29;20485;-70
2023/07/16 00:18:54;;;;;;;1999.90;999.90;;;18.60;99.90;;;;;;4937356;29;20035;-70
2023/07/16 00:21:20;;;;;;;1999.90;999.90;;;18.60;99.90;;;;;;4936540;29;20110;-70
2023/07/16 00:23:45;;;;;;;1999.90;999.90;;;18.60;99.90;;;;;;4954653;29;20027;-74
2023/07/16 00:26:12;;;;;;;1999.90;999.90;;;18.60;99.90;;;;;;4954850;28;20434;-74
2023/07/16 00:28:38;;;;;;;1999.90;999.90;;;18.60;99.90;;;;;;4958247;29;20106;-70
2023/07/16 00:31:03;;;;;;;1999.90;999.90;;;18.60;99.90;;;;;;4958638;29;20134;-69
2023/07/16 00:33:29;;;;;;;1999.90;999.90;;;18.50;99.90;;;;;;4957118;29;20031;-70
2023/07/16 00:35:55;;;;;;;1999.90;999.90;;;18.50;99.90;;;;;;4940689;29;20059;-75
2023/07/16 00:38:21;;;;;;;1999.90;999.90;;;18.50;99.90;;;;;;4957958;29;20031;-75
2023/07/16 00:40:47;;;;;;;1999.90;999.90;;;18.50;99.90;;;;;;4940890;29;20020;-69
2023/07/16 00:43:12;;;;;;;1999.90;999.90;;;18.50;99.90;;;;;;4957439;29;20033;-69
2023/07/16 00:45:39;;;;;;;1999.90;999.90;;;18.60;99.90;;;;;;4957810;29;20027;-69
2023/07/16 00:48:06;;;;;;;1999.90;999.90;;;18.70;99.90;;;;;;4940581;29;20035;-69
2023/07/16 00:50:34;;;;;;;1999.90;999.90;;;18.70;99.90;;;;;;4959297;29;20078;-74
2023/07/16 00:53:02;;;;;;;1999.90;999.90;;;18.70;99.90;;;;;;4957102;28;20055;-69
2023/07/16 00:55:29;;;;;;;1999.90;999.90;;;18.70;99.90;;;;;;4957920;29;20113;-69
2023/07/16 00:58:00;;;;;;;1999.90;999.90;;;18.60;99.90;;;;;;4940868;29;20482;-70
2023/07/16 01:00:25;;;;;;;1999.90;999.90;;;18.60;99.90;;;;;;4957699;29;20022;-69
2023/07/16 01:02:51;;;;;;;1999.90;999.90;;;18.70;99.90;;;;;;4940426;29;20031;-74
2023/07/16 01:05:17;;;;;;;1999.90;999.90;;;18.70;99.90;;;;;;4958041;29;20027;-69
2023/07/16 01:07:54;;;;;;;1999.90;999.90;;;18.70;99.90;;;;;;4940537;29;20035;-70
2023/07/16 01:10:21;;;;;;;1999.90;999.90;;;18.80;99.90;;;;;;4957701;29;20526;-70
2023/07/16 01:12:46;;;;;;;1999.90;999.90;;;18.80;99.90;;;;;;4957564;29;20035;-70
2023/07/16 01:15:12;;;;;;;1999.90;999.90;;;18.80;99.90;;;;;;4957387;29;20107;-75
2023/07/16 01:17:37;;;;;;;1999.90;999.90;;;18.80;99.90;;;;;;4957597;29;20433;-74
2023/07/16 01:20:05;;;;;;;1999.90;999.90;;;18.80;99.90;;;;;;4957656;29;20483;-70
2023/07/16 01:22:30;;;;;;;1999.90;999.90;;;18.80;99.90;;;;;;4957678;29;20015;-71
2023/07/16 01:25:19;;;;;;;1999.90;999.90;;;18.80;99.90;;;;;;4945089;29;20130;-70
2023/07/16 01:28:05;;;;;;;1999.90;999.90;;;18.80;99.90;;;;;;4957811;29;20431;-74
2023/07/16 01:30:31;;;;;;;1999.90;999.90;;;18.80;99.90;;;;;;4955988;29;20034;-70
2023/07/16 01:32:58;;;;;;;1999.90;999.90;;;18.70;99.90;;;;;;4957182;29;20113;-70
2023/07/16 01:35:25;;;;;;;1999.90;999.90;;;18.70;99.90;;;;;;4957497;28;20510;-69
2023/07/16 01:37:51;;;;;;;1999.90;999.90;;;18.70;99.90;;;;;;4955999;28;20035;-70
2023/07/16 01:40:19;;;;;;;1999.90;999.90;;;18.60;99.90;;;;;;4955256;29;20030;-70
2023/07/16 01:42:45;;;;;;;1999.90;999.90;;;18.60;99.90;;;;;;4957381;28;20031;-70
2023/07/16 01:45:10;;;;;;;1999.90;999.90;;;18.60;99.90;;;;;;4957364;28;20375;-70
2023/07/16 01:47:50;;;;;;;1999.90;999.90;;;18.60;99.90;;;;;;4957491;28;20110;-70
2023/07/16 01:50:16;;;;;;;1999.90;999.90;;;18.70;99.90;;;;;;4956778;28;20397;-69
2023/07/16 01:52:41;;;;;;;1999.90;999.90;;;18.70;99.90;;;;;;4955217;29;20138;-70
2023/07/16 01:55:07;;;;;;;1999.90;999.90;;;18.70;99.90;;;;;;4956971;28;20031;-74
2023/07/16 01:57:33;;;;;;;1999.90;999.90;;;18.80;99.90;;;;;;4956873;28;20035;-74
2023/07/16 01:59:58;;;;;;;1999.90;999.90;;;18.90;99.90;;;;;;4957212;28;20466;-70
2023/07/16 02:02:24;;;;;;;1999.90;999.90;;;18.90;99.90;;;;;;4956512;28;20027;-70
2023/07/16 02:04:50;;;;;;;1999.90;999.90;;;18.90;99.90;;;;;;4957063;28;20471;-70
2023/07/16 02:07:15;;;;;;;1999.90;999.90;;;18.90;99.90;;;;;;4955509;29;20028;-75
2023/07/16 02:09:41;;;;;;;1999.90;999.90;;;18.90;99.90;;;;;;4956494;28;20438;-74
2023/07/16 02:12:06;;;;;;;1999.90;999.90;;;18.70;99.90;;;;;;4939473;29;20033;-69
2023/07/16 02:14:32;;;;;;;1999.90;999.90;;;18.60;99.90;;;;;;4956323;29;20024;-70
2023/07/16 02:16:58;;;;;;;1999.90;999.90;;;18.50;99.90;;;;;;4956126;29;20490;-69
2023/07/16 02:19:25;;;;;;;1999.90;999.90;;;18.50;99.90;;;;;;4939002;29;20039;-73
2023/07/16 02:21:50;;;;;;;1999.90;999.90;;;18.40;99.90;;;;;;4939999;29;20030;-70
2023/07/16 02:24:16;;;;;;;1999.90;999.90;;;18.30;99.90;;;;;;4939063;29;20020;-74
2023/07/16 02:26:42;;;;;;;1999.90;999.90;;;18.30;99.90;;;;;;4954903;29;20121;-69
2023/07/16 02:29:08;;;;;;;1999.90;999.90;;;18.20;99.90;;;;;;4956444;29;20106;-70
2023/07/16 02:31:34;;;;;;;1999.90;999.90;;;18.20;99.90;;;;;;4956141;29;20167;-70
2023/07/16 02:34:00;;;;;;;1999.90;999.90;;;18.20;99.90;;;;;;4956053;29;20122;-74
2023/07/16 02:36:26;;;;;;;1999.90;999.90;;;18.10;99.90;;;;;;4956438;29;20066;-74
2023/07/16 02:38:51;;;;;;;1999.90;999.90;;;18.10;99.90;;;;;;4955162;29;20422;-69
2023/07/16 02:41:17;;;;;;;1999.90;999.90;;;18.10;99.90;;;;;;4956285;29;20051;-70
2023/07/16 02:43:45;;;;;;;1999.90;999.90;;;18.10;99.90;;;;;;4938871;29;20027;-70
2023/07/16 02:46:10;;;;;;;1999.90;999.90;;;18.10;99.90;;;;;;4955978;29;20054;-74
2023/07/16 02:48:36;;;;;;;1999.90;999.90;;;18.10;99.90;;;;;;4938522;29;20113;-70
2023/07/16 02:51:01;;;;;;;1999.90;999.90;;;18.10;99.90;;;;;;4955470;28;20410;-69
2023/07/16 02:53:27;;;;;;;1999.90;999.90;;;18.10;99.90;;;;;;4955496;29;20058;-69
2023/07/16 02:55:53;;;;;;;1999.90;999.90;;;18.10;99.90;;;;;;4956290;29;20039;-69
2023/07/16 02:58:18;;;;;;;1999.90;999.90;;;18.10;99.90;;;;;;4955624;29;20348;-72
2023/07/16 03:00:44;;;;;;;1999.90;999.90;;;18.10;99.90;;;;;;4955911;29;20026;-74
2023/07/16 03:03:09;;;;;;;1999.90;999.90;;;18.20;99.90;;;;;;4938473;29;20023;-74
2023/07/16 03:05:35;;;;;;;1999.90;999.90;;;18.20;99.90;;;;;;4938606;29;20143;-70
2023/07/16 03:08:01;;;;;;;1999.90;999.90;;;18.20;99.90;;;;;;4937825;29;20031;-70
2023/07/16 03:10:26;;;;;;;1999.90;999.90;;;18.20;99.90;;;;;;4955374;29;20029;-70
2023/07/16 03:12:52;;;;;;;1999.90;999.90;;;18.10;99.90;;;;;;4955517;29;20398;-74
2023/07/16 03:15:18;;;;;;;1999.90;999.90;;;18.10;99.90;;;;;;4955649;29;20537;-70
2023/07/16 03:17:44;;;;;;;1999.90;999.90;;;18.10;99.90;;;;;;4955053;29;20031;-69
2023/07/16 03:20:10;;;;;;;1999.90;999.90;;;18.10;99.90;;;;;;4954671;29;20031;-70
2023/07/16 03:22:35;;;;;;;1999.90;999.90;;;18.10;99.90;;;;;;4955481;29;20082;-69
2023/07/16 03:25:02;;;;;;;1999.90;999.90;;;18.10;99.90;;;;;;4955886;29;20023;-70
2023/07/16 03:27:28;;;;;;;1999.90;999.90;;;18.10;99.90;;;;;;4955435;29;20466;-74
2023/07/16 03:29:54;;;;;;;1999.90;999.90;;;18.00;99.90;;;;;;4955269;29;20034;-70
2023/07/16 03:32:19;;;;;;;1999.90;999.90;;;18.10;99.90;;;;;;4938060;29;20024;-70
2023/07/16 03:34:45;;;;;;;1999.90;999.90;;;18.10;99.90;;;;;;4973725;28;20071;-69
2023/07/16 03:37:11;;;;;;;1999.90;999.90;;;18.10;99.90;;;;;;4974749;28;20026;-70
2023/07/16 03:39:36;;;;;;;1999.90;999.90;;;18.10;99.90;;;;;;4973331;28;20042;-70
2023/07/16 03:42:02;;;;;;;1999.90;999.90;;;18.20;99.90;;;;;;4974518;28;20022;-69
2023/07/16 03:44:29;;;;;;;1999.90;999.90;;;18.10;99.90;;;;;;4956842;28;20057;-70
2023/07/16 03:46:55;;;;;;;1999.90;999.90;;;18.10;99.90;;;;;;4956762;28;20023;-69
2023/07/16 03:49:20;;;;;;;1999.90;999.90;;;18.10;99.90;;;;;;4974340;28;20052;-70
2023/07/16 03:51:46;;;;;;;1999.90;999.90;;;18.10;99.90;;;;;;4974257;28;20449;-74
2023/07/16 03:54:12;;;;;;;1999.90;999.90;;;18.10;99.90;;;;;;4974056;28;20051;-74
2023/07/16 03:56:37;;;;;;;1999.90;999.90;;;18.10;99.90;;;;;;4974349;28;20034;-70
2023/07/16 03:59:03;;;;;;;1999.90;999.90;;;18.10;99.90;;;;;;4956464;28;20596;-70
2023/07/16 04:01:29;;;;;;;1999.90;999.90;;;18.10;99.90;;;;;;4974166;28;20077;-69
2023/07/16 04:03:55;;;;;;;1999.90;999.90;;;18.00;99.90;;;;;;4977873;28;20434;-74
2023/07/16 04:06:20;;;;;;;1999.90;999.90;;;18.10;99.90;;;;;;4950508;29;20038;-74
2023/07/16 04:08:46;;;;;;;1999.90;999.90;;;18.10;99.90;;;;;;4958594;29;20031;-70
2023/07/16 04:11:12;;;;;;;1999.90;999.90;;;18.00;99.90;;;;;;4941672;29;20060;-69
2023/07/16 04:13:37;;;;;;;1999.90;999.90;;;18.00;99.90;;;;;;4958501;29;20074;-70
2023/07/16 04:16:03;;;;;;;1999.90;999.90;;;18.00;99.90;;;;;;4958853;29;20089;-69
2023/07/16 04:18:28;;;;;;;1999.90;999.90;;;18.00;99.90;;;;;;4958684;29;20031;-69
2023/07/16 04:20:54;;;;;;;1999.90;999.90;;;18.10;99.90;;;;;;4958649;29;20023;-70
2023/07/16 04:23:22;;;;;;;1999.90;999.90;;;18.20;99.90;;;;;;4958586;29;20459;-70
2023/07/16 04:25:55;;;;;;;1999.90;999.90;;;18.20;99.90;;;;;;4958770;29;20038;-69
2023/07/16 04:28:20;;;;;;;1999.90;999.90;;;18.30;99.90;;;;;;4945306;29;20035;-70
2023/07/16 04:30:46;;;;;;;1999.90;999.90;;;18.30;99.90;;;;;;4958149;29;20034;-73
2023/07/16 04:33:11;;;;;;;1999.90;999.90;;;18.20;99.90;;;;;;4958255;29;20035;-74
2023/07/16 04:35:37;;;;;;;1999.90;999.90;;;18.20;99.90;;;;;;4958954;28;20031;-69
2023/07/16 04:38:03;;;;;;;1999.90;999.90;;;18.20;99.90;;;;;;4957195;29;20046;-69
2023/07/16 04:40:31;;;;;;;1999.90;999.90;;;18.20;99.90;;;;;;4957722;28;20019;-70
2023/07/16 04:42:57;;;;;;;1999.90;999.90;;;18.20;99.90;;;;;;4957978;28;20031;-76
2023/07/16 04:45:23;;;;;;;1999.90;999.90;;;18.20;99.90;;;;;;4958300;28;20034;-74
2023/07/16 04:47:48;;;;;;;1999.90;999.90;;;18.20;99.90;;;;;;4957511;28;20063;-70
2023/07/16 04:50:14;;;;;;;1999.90;999.90;;;18.20;99.90;;;;;;4958643;28;20426;-70
2023/07/16 04:52:39;;;;;;;1999.90;999.90;;;18.20;99.90;;;;;;4958254;28;20093;-69
2023/07/16 04:55:05;;;;;;;1999.90;999.90;;;18.20;99.90;;;;;;4957935;28;20081;-69
2023/07/16 04:57:33;;;;;;;1999.90;999.90;;;18.20;99.90;;;;;;4958155;28;20482;-74
2023/07/16 04:59:58;;;;;;;1999.90;999.90;;;18.10;99.90;;;;;;4958046;28;20031;-74
2023/07/16 05:02:24;;;;;;;1999.90;999.90;;;18.10;99.90;;;;;;4958084;28;20087;-69
2023/07/16 05:04:50;;;;;;;1999.90;999.90;;;18.10;99.90;;;;;;4958065;28;20038;-70
2023/07/16 05:07:15;;;;;;;1999.90;999.90;;;18.00;99.90;;;;;;4957557;28;20512;-69
2023/07/16 05:09:42;;;;;;;1999.90;999.90;;;18.00;99.90;;;;;;4956482;29;20034;-70
2023/07/16 05:12:08;;;;;;;1999.90;999.90;;;18.00;99.90;;;;;;4958122;28;20387;-74
2023/07/16 05:14:43;;;;;;;1999.90;999.90;;;18.00;99.90;;;;;;4947209;28;20036;-70
2023/07/16 05:17:09;;;;;;;1999.90;999.90;;;18.00;99.90;;;;;;4938794;29;20595;-70
2023/07/16 05:19:35;;;;;;;1999.90;999.90;;;18.10;99.90;;;;;;4937975;29;20111;-69
2023/07/16 05:22:00;;;;;;;1999.90;999.90;;;18.10;99.90;;;;;;4938488;29;20132;-70
2023/07/16 05:24:26;;;;;;;1999.90;999.90;;;18.30;99.90;;;;;;4942511;29;20102;-74
2023/07/16 05:26:54;;;;;;;1999.90;999.90;;;18.40;99.90;;;;;;4957531;29;20020;-69
2023/07/16 05:29:19;;;;;;;1999.90;999.90;;;18.70;99.90;;;;;;4956170;29;20063;-70
2023/07/16 05:31:46;;;;;;;1999.90;999.90;;;18.80;99.90;;;;;;4957523;29;20114;-70
2023/07/16 05:34:12;;;;;;;1999.90;999.90;;;19.00;99.90;;;;;;4957096;29;20034;-70
2023/07/16 05:36:37;;;;;;;1999.90;999.90;;;19.10;99.90;;;;;;4957761;28;20027;-74
2023/07/16 05:39:03;;;;;;;1999.90;999.90;;;19.10;99.90;;;;;;4957328;28;20113;-69
2023/07/16 05:41:29;;;;;;;1999.90;999.90;;;19.10;99.90;;;;;;4956555;28;20024;-69
2023/07/16 05:43:54;;;;;;;1999.90;999.90;;;19.10;99.90;;;;;;4957649;28;20031;-69
2023/07/16 05:46:20;;;;;;;1999.90;999.90;;;19.00;99.90;;;;;;4956923;28;20514;-69
2023/07/16 05:48:45;;;;;;;1999.90;999.90;;;18.90;99.90;;;;;;4956949;28;20038;-73
2023/07/16 05:51:11;;;;;;;1999.90;999.90;;;18.40;99.90;;;;;;4957336;28;20102;-69
2023/07/16 05:53:36;;;;;;;1999.90;999.90;;;17.90;99.90;;;;;;4957030;28;20083;-69
2023/07/16 05:56:02;;;;;;;1999.90;999.90;;;17.60;99.90;;;;;;4956955;28;20031;-70
2023/07/16 05:58:29;;;;;;;1999.90;999.90;;;17.50;99.90;;;;;;4957051;28;20070;-70
2023/07/16 06:00:54;;;;;;;1999.90;999.90;;;17.40;99.90;;;;;;4956169;29;20027;-70
2023/07/16 06:03:20;;;;;;;1999.90;999.90;;;17.50;99.90;;;;;;4955809;29;20117;-70
2023/07/16 06:05:46;;;;;;;1999.90;999.90;;;17.60;99.90;;;;;;4957056;28;20028;-70
2023/07/16 06:08:12;;;;;;;1999.90;999.90;;;17.70;99.90;;;;;;4957037;28;20035;-70
2023/07/16 06:10:38;;;;;;;1999.90;999.90;;;17.70;99.90;;;;;;4954919;29;20520;-70
2023/07/16 06:13:04;;;;;;;1999.90;999.90;;;17.70;99.90;;;;;;4956758;28;20498;-70
2023/07/16 06:15:30;;;;;;;1999.90;999.90;;;17.80;99.90;;;;;;4939207;29;20034;-70
2023/07/16 06:17:55;;;;;;;1999.90;999.90;;;17.80;99.90;;;;;;4937273;29;20028;-74
2023/07/16 06:20:21;;;;;;;1999.90;999.90;;;17.80;99.90;;;;;;4936412;29;20102;-70
2023/07/16 06:22:46;;;;;;;1999.90;999.90;;;17.80;99.90;;;;;;4935802;29;20471;-70
2023/07/16 06:25:12;;;;;;;1999.90;999.90;;;17.80;99.90;;;;;;4947023;28;20078;-71
2023/07/16 06:27:38;;;;;;;1999.90;999.90;;;17.80;99.90;;;;;;4956447;29;20110;-74
2023/07/16 06:30:05;;;;;;;1999.90;999.90;;;17.90;99.90;;;;;;4956549;29;20037;-74
2023/07/16 06:32:31;;;;;;;1999.90;999.90;;;18.00;99.90;;;;;;4956483;29;20082;-70
2023/07/16 06:34:57;;;;;;;1999.90;999.90;;;18.00;99.90;;;;;;4954706;29;20027;-70
2023/07/16 06:37:23;;;;;;;1999.90;999.90;;;18.00;99.90;;;;;;4956686;28;20364;-70
2023/07/16 06:39:49;;;;;;;1999.90;999.90;;;18.10;99.90;;;;;;4956289;28;20019;-74
2023/07/16 06:42:15;;;;;;;1999.90;999.90;;;18.20;99.90;;;;;;4955259;28;20062;-70
2023/07/16 06:44:40;;;;;;;1999.90;999.90;;;18.40;99.90;;;;;;4956350;28;20024;-70
2023/07/16 06:47:06;;;;;;;1999.90;999.90;;;18.80;99.90;;;;;;4955704;28;20051;-70
2023/07/16 06:49:32;;;;;;;1999.90;999.90;;;19.10;99.90;;;;;;4956280;29;20031;-70
2023/07/16 06:52:00;;;;;;;1999.90;999.90;;;19.20;99.90;;;;;;4956400;29;20031;-70
2023/07/16 06:54:26;;;;;;;1999.90;999.90;;;19.30;99.90;;;;;;4955684;28;20530;-73
2023/07/16 06:56:51;;;;;;;1999.90;999.90;;;19.50;99.90;;;;;;4955344;29;20031;-70
2023/07/16 06:59:17;;;;;;;1999.90;999.90;;;19.80;99.90;;;;;;4955526;29;20031;-71
2023/07/16 07:01:42;;;;;;;1999.90;999.90;;;20.10;99.90;;;;;;4955870;29;20027;-70
2023/07/16 07:04:08;;;;;;;1999.90;999.90;;;20.10;99.90;;;;;;4955671;29;20019;-70
2023/07/16 07:06:34;;;;;;;1999.90;999.90;;;20.10;99.90;;;;;;4955787;29;20035;-70
2023/07/16 07:08:59;;;;;;;1999.90;999.90;;;20.10;99.90;;;;;;4955500;29;20031;-70
2023/07/16 07:11:25;;;;;;;1999.90;999.90;;;20.50;99.90;;;;;;4938261;29;20521;-70
2023/07/16 07:13:52;;;;;;;1999.90;999.90;;;20.80;99.90;;;;;;4955470;29;20061;-70
2023/07/16 07:16:18;;;;;;;1999.90;999.90;;;21.10;99.90;;;;;;4955804;29;20470;-70
2023/07/16 07:18:43;;;;;;;1999.90;999.90;;;21.40;99.90;;;;;;4955531;29;20181;-74
2023/07/16 07:21:09;;;;;;;1999.90;999.90;;;21.50;99.90;;;;;;4955316;29;20494;-70
2023/07/16 07:23:34;;;;;;;1999.90;999.90;;;21.70;99.90;;;;;;4955667;29;20107;-70
2023/07/16 07:26:00;;;;;;;1999.90;999.90;;;21.70;99.90;;;;;;4955228;29;20110;-70
2023/07/16 07:28:28;;;;;;;1999.90;999.90;;;21.70;99.90;;;;;;4955545;29;20023;-69
2023/07/16 07:30:53;;;;;;;1999.90;999.90;;;21.70;99.90;;;;;;4955597;29;20066;-69
2023/07/16 07:33:19;;;;;;;1999.90;999.90;;;22.00;99.90;;;;;;4954934;29;20031;-68
2023/07/16 07:35:45;;;;;;;1999.90;999.90;;;21.20;99.90;;;;;;4955241;28;20435;-69
2023/07/16 07:38:11;;;;;;;1999.90;999.90;;;20.40;99.90;;;;;;4954389;28;20032;-68
2023/07/16 07:40:36;;;;;;;1999.90;999.90;;;19.80;99.90;;;;;;4955392;28;20024;-69
2023/07/16 07:43:02;;;;;;;1999.90;999.90;;;19.40;99.90;;;;;;4954355;28;20486;-69
2023/07/16 07:45:27;;;;;;;1999.90;999.90;;;19.00;99.90;;;;;;4954098;29;20059;-69
2023/07/16 07:47:53;;;;;;;1999.90;999.90;;;18.60;99.90;;;;;;4955817;28;20469;-69
2023/07/16 07:50:18;;;;;;;1999.90;999.90;;;18.60;99.90;;;;;;4954919;28;20101;-69
2023/07/16 07:52:44;;;;;;;1999.90;999.90;;;18.90;99.90;;;;;;4955154;28;20137;-69
2023/07/16 07:55:10;;;;;;;1999.90;999.90;;;19.00;99.90;;;;;;4955396;28;20027;-69
2023/07/16 07:57:35;;;;;;;1999.90;999.90;;;19.20;99.90;;;;;;4954964;28;20466;-69
2023/07/16 08:00:01;;;;;;;1999.90;999.90;;;19.50;99.90;;;;;;4955135;28;20023;-76
2023/07/16 08:02:27;;;;;;;1999.90;999.90;;;19.90;99.90;;;;;;4955035;29;20023;-70
2023/07/16 08:04:54;;;;;;;1999.90;999.90;;;20.30;99.90;;;;;;4954750;28;20471;-70
2023/07/16 08:07:20;;;;;;;1999.90;999.90;;;20.80;99.90;;;;;;4953681;29;20027;-70
2023/07/16 08:09:47;;;;;;;1999.90;999.90;;;21.10;99.90;;;;;;4954981;28;20101;-70
2023/07/16 08:12:13;;;;;;;1999.90;999.90;;;21.40;99.90;;;;;;4954843;28;20034;-74
2023/07/16 08:14:39;;;;;;;1999.90;999.90;;;21.70;99.90;;;;;;4954642;28;20074;-70
2023/07/16 08:17:04;;;;;;;1999.90;999.90;;;22.00;99.90;;;;;;4954510;29;20059;-69
2023/07/16 08:19:30;;;;;;;1999.90;999.90;;;21.70;99.90;;;;;;4954787;29;20032;-70
2023/07/16 08:21:56;;;;;;;1999.90;999.90;;;21.90;99.90;;;;;;4954982;29;20066;-69
2023/07/16 08:24:21;;;;;;;1999.90;999.90;;;21.70;99.90;;;;;;4954937;29;20019;-70
2023/07/16 08:26:47;;;;;;;1999.90;999.90;;;21.60;99.90;;;;;;4954759;29;20062;-74
2023/07/16 08:29:12;;;;;;;1999.90;999.90;;;21.90;99.90;;;;;;4955524;29;20031;-69
2023/07/16 08:31:38;;;;;;;1999.90;999.90;;;22.00;99.90;;;;;;4955181;29;20028;-69
2023/07/16 08:34:04;;;;;;;1999.90;999.90;;;22.20;99.90;;;;;;4967805;28;20113;-69
2023/07/16 08:36:29;;;;;;;1999.90;999.90;;;22.30;99.90;;;;;;4974023;28;20462;-74
2023/07/16 08:38:55;;;;;;;1999.90;999.90;;;22.30;99.90;;;;;;4974039;28;20023;-70
2023/07/16 08:41:21;;;;;;;1999.90;999.90;;;22.00;99.90;;;;;;4974034;28;20034;-69
2023/07/16 08:43:47;;;;;;;1999.90;999.90;;;21.80;99.90;;;;;;4973123;28;20031;-69
2023/07/16 08:46:15;;;;;;;1999.90;999.90;;;21.40;99.90;;;;;;4956600;28;20031;-69
2023/07/16 08:48:40;;;;;;;1999.90;999.90;;;21.10;99.90;;;;;;4975759;28;20019;-68
2023/07/16 08:51:09;;;;;;;1999.90;999.90;;;20.80;99.90;;;;;;4977233;28;20564;-70
2023/07/16 08:53:35;;;;;;;1999.90;999.90;;;20.50;99.90;;;;;;4977442;28;20047;-75
2023/07/16 08:56:02;;;;;;;1999.90;999.90;;;20.70;99.90;;;;;;4977321;28;20437;-69
2023/07/16 08:58:29;;;;;;;1999.90;999.90;;;20.70;99.90;;;;;;4977181;28;20027;-69
2023/07/16 09:00:56;;;;;;;1999.90;999.90;;;20.80;99.90;;;;;;4977752;28;20462;-70
2023/07/16 09:03:21;;;;;;;1999.90;999.90;;;21.00;99.90;;;;;;4977250;28;20027;-74
2023/07/16 09:05:47;;;;;;;1999.90;999.90;;;21.40;99.90;;;;;;4960112;28;20351;-74
2023/07/16 09:08:13;;;;;;;1999.90;999.90;;;22.10;99.90;;;;;;4977313;28;20031;-70
2023/07/16 09:10:43;;;;;;;1999.90;999.90;;;22.60;99.90;;;;;;4977102;28;20110;-69
2023/07/16 09:13:09;;;;;;;1999.90;999.90;;;22.60;99.90;;;;;;4976955;28;20482;-70
2023/07/16 09:15:36;;;;;;;1999.90;999.90;;;23.10;99.90;;;;;;4959792;28;20059;-70
2023/07/16 09:18:02;;;;;;;1999.90;999.90;;;23.80;99.90;;;;;;4957776;29;20027;-70
2023/07/16 09:20:30;;;;;;;1999.90;999.90;;;24.00;99.90;;;;;;4957047;29;20031;-70
2023/07/16 09:22:56;;;;;;;1999.90;999.90;;;23.60;99.90;;;;;;4957592;29;20024;-69
2023/07/16 09:25:32;;;;;;;1999.90;999.90;;;23.30;99.90;;;;;;4957760;29;20023;-70
2023/07/16 09:28:02;;;;;;;1999.90;999.90;;;23.10;99.90;;;;;;4957425;29;20039;-70
2023/07/16 09:30:33;;;;;;;1999.90;999.90;;;24.00;99.90;;;;;;4957878;29;20027;-75
2023/07/16 09:33:08;;;;;;;1999.90;999.90;;;24.50;99.90;;;;;;4961426;28;20027;-70
2023/07/16 09:35:36;;;;;;;1999.90;999.90;;;25.60;99.90;;;;;;4976782;28;20023;-70
2023/07/16 09:38:02;;;;;;;1999.90;999.90;;;26.40;99.90;;;;;;4976618;28;20062;-70
2023/07/16 09:40:28;;;;;;;1999.90;999.90;;;27.90;99.90;;;;;;4958938;28;20521;-71
2023/07/16 09:42:55;;;;;;;1999.90;999.90;;;30.30;98.00;;;;;;4976364;28;20035;-70
2023/07/16 09:45:21;;;;;;;1999.90;999.90;;;30.90;96.30;;;;;;4975701;28;20018;-75
2023/07/16 09:47:46;;;;;;;1999.90;999.90;;;31.50;95.60;;;;;;4976881;28;20482;-70
2023/07/16 09:50:12;;;;;;;1999.90;999.90;;;31.30;95.40;;;;;;4976512;28;20030;-70
2023/07/16 09:52:39;;;;;;;1999.90;999.90;;;30.50;97.40;;;;;;4976307;28;20051;-70
2023/07/16 09:55:08;;;;;;;1999.90;999.90;;;31.30;97.10;;;;;;4976443;28;20033;-75
2023/07/16 09:57:41;;;;;;;1999.90;999.90;;;31.50;96.80;;;;;;4976534;28;20129;-75
2023/07/16 10:00:12;;;;;;;1999.90;999.90;;;31.20;96.50;;;;;;4975692;28;20366;-70
2023/07/16 10:02:39;;;;;;;1999.90;999.90;;;30.10;97.80;;;;;;4976074;28;20053;-71
2023/07/16 10:05:16;;;;;;;1999.90;999.90;;;29.80;96.80;;;;;;4958321;28;20094;-70
2023/07/16 10:07:42;;;;;;;1999.90;999.90;;;31.00;97.90;;;;;;4976254;28;20019;-75
2023/07/16 10:10:09;;;;;;;1999.90;999.90;;;32.30;96.80;;;;;;4966827;28;20027;-75
2023/07/16 10:12:35;;;;;;;1999.90;999.90;;;30.60;96.60;;;;;;4939141;29;20495;-69
2023/07/16 10:15:03;;;;;;;1999.90;999.90;;;28.20;99.60;;;;;;4956565;29;20023;-69
2023/07/16 10:17:30;;;;;;;1999.90;999.90;;;26.70;99.90;;;;;;4956597;29;20027;-70
2023/07/16 10:20:12;;;;;;;1999.90;999.90;;;26.00;99.90;;;;;;4956234;29;20020;-70
2023/07/16 10:22:43;;;;;;;1999.90;999.90;;;25.80;99.90;;;;;;4956565;29;20073;-75
2023/07/16 10:25:17;;;;;;;1999.90;999.90;;;27.10;99.90;;;;;;4956452;29;20027;-70
2023/07/16 10:27:47;;;;;;;1999.90;999.90;;;27.80;99.90;;;;;;4956655;29;20031;-70
2023/07/16 10:30:13;;;;;;;1999.90;999.90;;;29.80;99.90;;;;;;4956545;29;20024;-70
2023/07/16 10:32:39;;;;;;;1999.90;999.90;;;28.20;99.90;;;;;;4956091;29;20055;-70
2023/07/16 10:35:06;;;;;;;1999.90;999.90;;;28.10;99.90;;;;;;4956217;28;20023;-75
2023/07/16 10:37:32;;;;;;;1999.90;999.90;;;28.40;99.90;;;;;;4956692;28;20111;-75
2023/07/16 10:39:59;;;;;;;1999.90;999.90;;;26.60;99.90;;;;;;4957845;28;20027;-70
2023/07/16 10:42:27;;;;;;;1999.90;999.90;;;25.60;99.90;;;;;;4954792;29;20025;-70
2023/07/16 10:44:57;;;;;;;1999.90;999.90;;;24.70;99.90;;;;;;4955754;28;20041;-69
2023/07/16 10:47:33;;;;;;;1999.90;999.90;;;24.60;99.90;;;;;;4955231;28;20027;-75
2023/07/16 10:50:00;;;;;;;1999.90;999.90;;;24.50;99.90;;;;;;4956107;28;20102;-74
2023/07/16 10:52:26;;;;;;;1999.90;999.90;;;24.40;99.90;;;;;;4955901;28;20038;-70
2023/07/16 10:54:54;;;;;;;1999.90;999.90;;;24.60;99.90;;;;;;4955663;28;20054;-70
2023/07/16 10:57:21;;;;;;;1999.90;999.90;;;24.90;99.90;;;;;;4955952;28;20027;-70
2023/07/16 10:59:49;;;;;;;1999.90;999.90;;;25.60;99.90;;;;;;4954466;29;20429;-75
2023/07/16 11:02:16;;;;;;;1999.90;999.90;;;26.20;99.90;;;;;;4954410;29;20027;-70
2023/07/16 11:04:42;;;;;;;1999.90;999.90;;;24.30;99.90;;;;;;4955931;28;20019;-71
2023/07/16 11:07:11;;;;;;;1999.90;999.90;;;24.30;99.90;;;;;;4953979;29;20098;-69
2023/07/16 11:09:54;;;;;;;1999.90;999.90;;;24.00;99.90;;;;;;4955576;28;20019;-70
2023/07/16 11:12:24;;;;;;;1999.90;999.90;;;23.50;99.90;;;;;;4955388;28;20078;-69
2023/07/16 11:14:52;;;;;;;1999.90;999.90;;;23.40;99.90;;;;;;4954941;29;20403;-70
2023/07/16 11:17:19;;;;;;;1999.90;999.90;;;25.20;99.90;;;;;;4955886;29;20086;-70
2023/07/16 11:19:47;;;;;;;1999.90;999.90;;;26.10;99.90;;;;;;4954772;29;20098;-70
2023/07/16 11:22:14;;;;;;;1999.90;999.90;;;26.70;99.90;;;;;;4955479;29;20042;-69
2023/07/16 11:24:42;;;;;;;1999.90;999.90;;;26.70;99.90;;;;;;4955463;29;20019;-70
2023/07/16 11:27:15;;;;;;;1999.90;999.90;;;26.70;99.90;;;;;;4955435;29;20019;-75
2023/07/16 11:29:47;;;;;;;1999.90;999.90;;;27.40;99.90;;;;;;4953893;29;20394;-70
2023/07/16 11:32:13;;;;;;;;;;;27.90;99.90;;;;;;4955965;29;20027;-70
2023/07/16 11:34:52;;;;;;;1999.90;999.90;;;28.30;99.90;;;;;;4953817;28;19969;-70
2023/07/16 11:37:18;;;;;;;1999.90;999.90;;;28.70;99.90;;;;;;4955041;28;20475;-70
2023/07/16 11:39:43;;;;;;;1999.90;999.90;;;28.80;99.90;;;;;;4955183;28;20034;-70
2023/07/16 11:42:09;;;;;;;1999.90;999.90;;;28.60;99.90;;;;;;4954770;29;20029;-74
2023/07/16 11:44:36;;;;;;;1999.90;999.90;;;28.70;99.90;;;;;;4957018;28;20035;-70
2023/07/16 11:47:03;;;;;;;1999.90;999.90;;;28.90;99.90;;;;;;4956217;28;20023;-70
2023/07/16 11:49:29;;;;;;;1999.90;999.90;;;29.00;99.90;;;;;;4955025;28;20035;-69
2023/07/16 11:51:54;;;;;;;1999.90;999.90;;;28.70;99.90;;;;;;4955663;28;20027;-74
2023/07/16 11:54:20;;;;;;;1999.90;999.90;;;28.70;99.90;;;;;;4955148;28;20090;-70
2023/07/16 11:56:47;;;;;;;1999.90;999.90;;;28.90;99.90;;;;;;4954856;28;20031;-70